createdAt,value
2023-04-27T00:00:29.283Z,5.2
2023-04-27T00:01:29.860Z,5.2
2023-04-27T00:02:30.682Z,5.5
2023-04-27T00:03:31.421Z,5.1
2023-04-27T00:04:32.099Z,5.0
2023-04-27T00:05:33.005Z,4.8
2023-04-27T00:06:33.651Z,4.9
2023-04-27T00:07:34.240Z,4.5
2023-04-27T00:08:34.835Z,4.8
2023-04-27T00:09:35.430Z,5.5
2023-04-27T00:10:36.023Z,4.4
2023-04-27T00:11:36.617Z,4.6
2023-04-27T00:12:37.207Z,4.8
2023-04-27T00:13:37.805Z,5.1
2023-04-27T00:14:38.396Z,5.3
2023-04-27T00:15:39.010Z,5.1
2023-04-27T00:16:39.724Z,4.4
2023-04-27T00:17:40.309Z,4.9
2023-04-27T00:18:40.856Z,5.3
2023-04-27T00:19:41.450Z,4.6
2023-04-27T00:20:42.077Z,4.5
2023-04-27T00:21:42.668Z,5.0
2023-04-27T00:22:43.261Z,4.2
2023-04-27T00:23:43.869Z,4.4
2023-04-27T00:24:44.466Z,5.1
2023-04-27T00:25:45.063Z,4.9
2023-04-27T00:26:45.655Z,4.7
2023-04-27T00:27:46.268Z,5.3
2023-04-27T00:28:46.910Z,4.2
2023-04-27T00:29:47.485Z,4.3
2023-04-27T00:30:48.089Z,4.3
2023-04-27T00:31:48.710Z,4.3
2023-04-27T00:32:49.318Z,4.8
2023-04-27T00:33:49.873Z,4.1
2023-04-27T00:34:50.496Z,4.3
2023-04-27T00:35:51.093Z,4.6
2023-04-27T00:36:51.682Z,4.3
2023-04-27T00:37:52.273Z,4.7
2023-04-27T00:38:52.873Z,5.0
2023-04-27T00:39:53.472Z,4.9
2023-04-27T00:40:54.057Z,4.6
2023-04-27T00:41:54.659Z,5.1
2023-04-27T00:42:55.248Z,4.7
2023-04-27T00:43:55.837Z,4.2
2023-04-27T00:44:56.429Z,4.5
2023-04-27T00:45:57.097Z,4.8
2023-04-27T00:46:57.661Z,4.9
2023-04-27T00:47:58.303Z,5.2
2023-04-27T00:48:58.876Z,5.1
2023-04-27T00:49:59.464Z,4.7
2023-04-27T00:51:00.058Z,4.7
2023-04-27T00:52:00.655Z,5.2
2023-04-27T00:53:01.244Z,4.7
2023-04-27T00:54:01.854Z,5.0
2023-04-27T00:55:02.433Z,4.8
2023-04-27T00:56:03.048Z,4.3
2023-04-27T00:57:03.642Z,5.2
2023-04-27T00:58:04.283Z,5.2
2023-04-27T00:59:04.846Z,4.8
2023-04-27T01:00:05.451Z,5.0
2023-04-27T01:01:06.117Z,4.8
2023-04-27T01:02:06.706Z,5.1
2023-04-27T01:03:07.429Z,5.0
2023-04-27T01:04:08.262Z,4.6
2023-04-27T01:05:09.024Z,4.3
2023-04-27T01:06:09.614Z,5.5
2023-04-27T01:07:10.196Z,4.6
2023-04-27T01:08:10.806Z,4.7
2023-04-27T01:09:11.666Z,4.7
2023-04-27T01:10:12.296Z,4.9
2023-04-27T01:11:12.910Z,5.1
2023-04-27T01:12:13.515Z,4.7
2023-04-27T01:13:14.103Z,5.2
2023-04-27T01:14:14.692Z,5.0
2023-04-27T01:15:15.280Z,4.9
2023-04-27T01:16:15.891Z,4.9
2023-04-27T01:17:16.489Z,5.3
2023-04-27T01:18:17.111Z,4.8
2023-04-27T01:19:17.692Z,4.5
2023-04-27T01:20:18.290Z,4.9
2023-04-27T01:21:18.877Z,4.8
2023-04-27T01:22:19.471Z,5.3
2023-04-27T01:23:20.062Z,5.0
2023-04-27T01:24:20.654Z,4.9
2023-04-27T01:25:21.253Z,5.1
2023-04-27T01:26:21.841Z,5.9
2023-04-27T01:27:22.432Z,5.1
2023-04-27T01:28:23.049Z,5.3
2023-04-27T01:29:23.626Z,5.8
2023-04-27T01:30:24.228Z,4.8
2023-04-27T01:31:24.875Z,5.7
2023-04-27T01:32:25.443Z,4.9
2023-04-27T01:33:26.018Z,5.1
2023-04-27T01:34:26.615Z,5.8
2023-04-27T01:35:28.395Z,4.9
2023-04-27T01:36:28.810Z,4.9
2023-04-27T01:37:29.404Z,5.1
2023-04-27T01:38:29.999Z,5.5
2023-04-27T01:39:30.591Z,5.1
2023-04-27T01:40:31.192Z,5.3
2023-04-27T01:41:31.775Z,5.7
2023-04-27T01:42:32.373Z,5.0
2023-04-27T01:43:32.975Z,5.8
2023-04-27T01:44:33.554Z,5.8
2023-04-27T01:45:34.166Z,5.3
2023-04-27T01:46:34.814Z,5.5
2023-04-27T01:47:35.392Z,5.2
2023-04-27T01:48:35.974Z,5.1
2023-04-27T01:49:36.567Z,5.3
2023-04-27T01:50:37.183Z,5.4
2023-04-27T01:51:37.773Z,5.3
2023-04-27T01:52:38.365Z,5.3
2023-04-27T01:53:38.966Z,5.3
2023-04-27T01:54:39.555Z,5.5
2023-04-27T01:55:40.148Z,4.7
2023-04-27T01:56:40.753Z,4.9
2023-04-27T01:57:41.332Z,5.7
2023-04-27T01:58:41.932Z,5.5
2023-04-27T01:59:42.543Z,6.0
2023-04-27T02:00:43.117Z,6.4
2023-04-27T02:01:43.755Z,6.0
2023-04-27T02:02:44.457Z,6.2
2023-04-27T02:03:45.208Z,5.9
2023-04-27T02:04:45.938Z,5.9
2023-04-27T02:05:46.476Z,5.9
2023-04-27T02:06:47.070Z,6.2
2023-04-27T02:07:47.667Z,6.2
2023-04-27T02:08:48.254Z,6.1
2023-04-27T02:09:48.854Z,6.7
2023-04-27T02:10:49.455Z,6.6
2023-04-27T02:11:50.056Z,6.7
2023-04-27T02:12:50.630Z,6.2
2023-04-27T02:13:51.222Z,6.3
2023-04-27T02:14:51.819Z,6.7
2023-04-27T02:15:52.461Z,7.0
2023-04-27T02:16:53.010Z,6.9
2023-04-27T02:17:53.626Z,6.4
2023-04-27T02:18:54.201Z,7.1
2023-04-27T02:19:54.784Z,7.1
2023-04-27T02:20:55.393Z,6.7
2023-04-27T02:21:55.975Z,6.9
2023-04-27T02:22:56.578Z,6.9
2023-04-27T02:23:57.176Z,7.6
2023-04-27T02:24:57.770Z,7.0
2023-04-27T02:25:58.362Z,6.7
2023-04-27T02:26:58.958Z,7.0
2023-04-27T02:27:59.550Z,6.8
2023-04-27T02:29:00.609Z,6.6
2023-04-27T02:30:01.635Z,7.7
2023-04-27T02:31:02.741Z,6.9
2023-04-27T02:32:03.408Z,6.7
2023-04-27T02:33:03.973Z,7.8
2023-04-27T02:34:04.557Z,7.6
2023-04-27T02:35:05.197Z,7.0
2023-04-27T02:36:05.751Z,6.8
2023-04-27T02:37:06.339Z,6.5
2023-04-27T02:38:06.929Z,7.4
2023-04-27T02:39:07.526Z,7.6
2023-04-27T02:40:08.124Z,7.0
2023-04-27T02:41:08.714Z,7.7
2023-04-27T02:42:09.307Z,7.5
2023-04-27T02:43:09.922Z,7.6
2023-04-27T02:44:10.522Z,7.3
2023-04-27T02:45:11.110Z,6.8
2023-04-27T02:46:11.730Z,7.7
2023-04-27T02:47:12.292Z,7.0
2023-04-27T02:48:12.889Z,7.5
2023-04-27T02:49:13.776Z,7.3
2023-04-27T02:50:14.621Z,7.0
2023-04-27T02:51:15.241Z,7.2
2023-04-27T02:52:15.856Z,7.4
2023-04-27T02:53:16.453Z,7.2
2023-04-27T02:54:17.047Z,6.8
2023-04-27T02:55:17.635Z,6.9
2023-04-27T02:56:18.243Z,6.3
2023-04-27T02:57:18.853Z,7.3
2023-04-27T02:58:19.439Z,6.9
2023-04-27T02:59:20.037Z,7.3
2023-04-27T03:00:20.793Z,6.7
2023-04-27T03:01:21.401Z,7.0
2023-04-27T03:02:22.084Z,7.4
2023-04-27T03:03:22.894Z,7.4
2023-04-27T03:04:23.629Z,5.8
2023-04-27T03:05:24.159Z,6.9
2023-04-27T03:06:24.754Z,6.4
2023-04-27T03:07:25.349Z,6.9
2023-04-27T03:08:25.954Z,6.6
2023-04-27T03:09:26.550Z,6.2
2023-04-27T03:10:27.160Z,6.5
2023-04-27T03:11:27.755Z,6.2
2023-04-27T03:12:28.349Z,6.7
2023-04-27T03:13:28.944Z,7.0
2023-04-27T03:14:29.543Z,6.8
2023-04-27T03:15:30.123Z,6.7
2023-04-27T03:16:30.731Z,6.3
2023-04-27T03:17:31.349Z,6.2
2023-04-27T03:18:31.910Z,6.7
2023-04-27T03:19:32.518Z,6.4
2023-04-27T03:20:33.082Z,6.3
2023-04-27T03:21:33.674Z,6.5
2023-04-27T03:22:34.294Z,6.5
2023-04-27T03:23:34.878Z,6.5
2023-04-27T03:24:35.472Z,5.8
2023-04-27T03:25:36.067Z,6.0
2023-04-27T03:26:36.659Z,6.2
2023-04-27T03:27:37.255Z,6.3
2023-04-27T03:28:37.867Z,6.1
2023-04-27T03:29:38.464Z,6.5
2023-04-27T03:30:39.053Z,6.9
2023-04-27T03:31:39.680Z,6.1
2023-04-27T03:32:40.338Z,6.4
2023-04-27T03:33:40.939Z,6.0
2023-04-27T03:34:41.531Z,5.6
2023-04-27T03:35:42.119Z,6.6
2023-04-27T03:36:42.705Z,6.1
2023-04-27T03:37:43.305Z,6.7
2023-04-27T03:38:43.921Z,6.9
2023-04-27T03:39:44.561Z,6.2
2023-04-27T03:40:45.108Z,5.9
2023-04-27T03:41:45.704Z,6.4
2023-04-27T03:42:46.318Z,5.9
2023-04-27T03:43:46.926Z,5.5
2023-04-27T03:44:47.519Z,6.4
2023-04-27T03:45:48.176Z,6.1
2023-04-27T03:46:48.748Z,6.2
2023-04-27T03:47:49.426Z,5.8
2023-04-27T03:48:50.019Z,6.0
2023-04-27T03:49:50.623Z,6.3
2023-04-27T03:50:51.213Z,5.7
2023-04-27T03:51:51.811Z,5.1
2023-04-27T03:52:52.425Z,6.3
2023-04-27T03:53:53.021Z,7.1
2023-04-27T03:54:53.615Z,5.4
2023-04-27T03:55:54.227Z,5.4
2023-04-27T03:56:54.829Z,6.8
2023-04-27T03:57:55.429Z,6.0
2023-04-27T03:58:56.042Z,5.7
2023-04-27T03:59:56.639Z,5.8
2023-04-27T04:00:57.289Z,5.7
2023-04-27T04:02:00.809Z,6.4
2023-04-27T04:02:59.585Z,5.9
2023-04-27T04:04:00.367Z,6.0
2023-04-27T04:05:01.120Z,6.5
2023-04-27T04:06:01.705Z,5.5
2023-04-27T04:07:02.307Z,5.8
2023-04-27T04:08:02.893Z,5.6
2023-04-27T04:09:03.490Z,6.0
2023-04-27T04:10:04.111Z,6.1
2023-04-27T04:11:04.711Z,5.7
2023-04-27T04:12:05.304Z,5.5
2023-04-27T04:13:05.931Z,5.6
2023-04-27T04:14:06.526Z,5.8
2023-04-27T04:15:07.118Z,5.5
2023-04-27T04:16:07.795Z,5.7
2023-04-27T04:17:08.330Z,5.6
2023-04-27T04:18:08.987Z,5.5
2023-04-27T04:19:09.559Z,5.0
2023-04-27T04:20:10.156Z,5.2
2023-04-27T04:21:10.776Z,5.7
2023-04-27T04:22:11.392Z,5.6
2023-04-27T04:23:12.039Z,5.8
2023-04-27T04:24:12.582Z,6.2
2023-04-27T04:25:13.223Z,6.1
2023-04-27T04:26:13.796Z,5.9
2023-04-27T04:27:14.376Z,6.1
2023-04-27T04:28:14.976Z,6.5
2023-04-27T04:29:15.848Z,6.6
2023-04-27T04:30:16.656Z,7.2
2023-04-27T04:31:17.333Z,7.0
2023-04-27T04:32:17.887Z,7.9
2023-04-27T04:33:18.506Z,7.9
2023-04-27T04:34:19.106Z,7.9
2023-04-27T04:35:19.743Z,8.2
2023-04-27T04:36:20.322Z,7.0
2023-04-27T04:37:20.919Z,6.7
2023-04-27T04:38:21.521Z,8.0
2023-04-27T04:39:22.113Z,8.1
2023-04-27T04:40:22.726Z,7.8
2023-04-27T04:41:23.331Z,7.6
2023-04-27T04:42:23.930Z,7.5
2023-04-27T04:43:24.536Z,7.3
2023-04-27T04:44:25.129Z,6.6
2023-04-27T04:45:25.728Z,7.0
2023-04-27T04:46:26.370Z,8.7
2023-04-27T04:47:26.967Z,7.0
2023-04-27T04:48:27.544Z,8.2
2023-04-27T04:49:28.146Z,10.8
2023-04-27T04:50:28.763Z,9.3
2023-04-27T04:51:29.361Z,8.0
2023-04-27T04:52:29.961Z,7.4
2023-04-27T04:53:30.557Z,8.3
2023-04-27T04:54:31.152Z,7.9
2023-04-27T04:55:31.755Z,7.7
2023-04-27T04:56:32.353Z,8.6
2023-04-27T04:57:32.945Z,7.5
2023-04-27T04:58:33.551Z,7.4
2023-04-27T04:59:34.145Z,7.9
2023-04-27T05:00:34.743Z,7.6
2023-04-27T05:01:35.407Z,7.7
2023-04-27T05:02:36.039Z,7.8
2023-04-27T05:03:36.785Z,7.6
2023-04-27T05:04:37.577Z,8.2
2023-04-27T05:05:38.280Z,7.9
2023-04-27T05:06:38.876Z,7.1
2023-04-27T05:07:39.478Z,6.8
2023-04-27T05:08:40.080Z,7.9
2023-04-27T05:09:40.689Z,7.7
2023-04-27T05:10:41.301Z,8.1
2023-04-27T05:11:41.897Z,8.0
2023-04-27T05:12:42.493Z,8.0
2023-04-27T05:13:43.105Z,9.7
2023-04-27T05:14:43.689Z,8.0
2023-04-27T05:15:44.311Z,7.7
2023-04-27T05:16:44.934Z,7.2
2023-04-27T05:17:45.524Z,6.4
2023-04-27T05:18:46.108Z,6.6
2023-04-27T05:19:46.709Z,6.6
2023-04-27T05:20:47.328Z,7.2
2023-04-27T05:21:47.943Z,7.4
2023-04-27T05:22:48.545Z,6.4
2023-04-27T05:23:49.181Z,6.5
2023-04-27T05:24:49.784Z,6.8
2023-04-27T05:25:50.378Z,7.0
2023-04-27T05:26:50.982Z,7.0
2023-04-27T05:27:51.574Z,6.8
2023-04-27T05:28:52.178Z,6.8
2023-04-27T05:29:52.773Z,6.1
2023-04-27T05:30:53.374Z,6.2
2023-04-27T05:31:54.043Z,5.8
2023-04-27T05:32:54.643Z,6.4
2023-04-27T05:33:55.231Z,5.8
2023-04-27T05:34:55.847Z,6.0
2023-04-27T05:35:56.447Z,5.9
2023-04-27T05:36:57.071Z,5.8
2023-04-27T05:37:57.640Z,5.1
2023-04-27T05:38:58.240Z,4.3
2023-04-27T05:39:58.844Z,4.6
2023-04-27T05:40:59.458Z,4.1
2023-04-27T05:42:00.054Z,3.4
2023-04-27T05:43:00.657Z,2.8
2023-04-27T05:44:01.271Z,2.7
2023-04-27T05:45:01.870Z,2.5
2023-04-27T05:46:02.505Z,2.6
2023-04-27T05:47:03.082Z,2.5
2023-04-27T05:48:03.730Z,3.0
2023-04-27T05:49:04.290Z,2.4
2023-04-27T05:50:04.894Z,2.4
2023-04-27T05:51:05.508Z,2.6
2023-04-27T05:52:06.106Z,2.9
2023-04-27T05:53:06.809Z,2.2
2023-04-27T05:54:07.341Z,2.6
2023-04-27T05:55:07.947Z,2.6
2023-04-27T05:56:08.536Z,2.4
2023-04-27T05:57:09.136Z,2.5
2023-04-27T05:58:09.749Z,2.1
2023-04-27T05:59:10.332Z,2.0
2023-04-27T06:00:10.971Z,2.4
2023-04-27T06:01:11.547Z,2.0
2023-04-27T06:02:12.265Z,2.1
2023-04-27T06:03:12.982Z,2.5
2023-04-27T06:04:13.702Z,2.9
2023-04-27T06:05:14.367Z,2.4
2023-04-27T06:06:14.945Z,2.2
2023-04-27T06:07:16.354Z,2.7
2023-04-27T06:08:17.001Z,2.6
2023-04-27T06:09:17.596Z,2.6
2023-04-27T06:10:18.216Z,2.9
2023-04-27T06:11:18.815Z,3.1
2023-04-27T06:12:19.414Z,2.9
2023-04-27T06:13:20.022Z,3.2
2023-04-27T06:14:20.631Z,2.3
2023-04-27T06:15:21.227Z,3.1
2023-04-27T06:16:21.863Z,2.7
2023-04-27T06:17:22.465Z,2.4
2023-04-27T06:18:23.064Z,2.5
2023-04-27T06:19:23.660Z,2.6
2023-04-27T06:20:24.277Z,2.0
2023-04-27T06:21:24.880Z,2.2
2023-04-27T06:22:25.480Z,2.5
2023-04-27T06:23:26.080Z,2.3
2023-04-27T06:24:26.702Z,2.3
2023-04-27T06:25:27.425Z,2.2
2023-04-27T06:26:27.938Z,2.1
2023-04-27T06:27:28.533Z,2.6
2023-04-27T06:28:29.130Z,2.4
2023-04-27T06:29:29.754Z,1.9
2023-04-27T06:30:30.376Z,1.8
2023-04-27T06:31:31.007Z,2.0
2023-04-27T06:32:31.638Z,1.8
2023-04-27T06:33:32.192Z,2.0
2023-04-27T06:34:32.790Z,1.9
2023-04-27T06:35:33.393Z,1.6
2023-04-27T06:36:33.992Z,2.0
2023-04-27T06:37:34.613Z,1.7
2023-04-27T06:38:35.214Z,1.2
2023-04-27T06:39:35.818Z,1.5
2023-04-27T06:40:36.408Z,2.2
2023-04-27T06:41:37.029Z,2.3
2023-04-27T06:42:37.645Z,2.0
2023-04-27T06:43:38.280Z,2.0
2023-04-27T06:44:38.898Z,1.6
2023-04-27T06:45:39.502Z,1.8
2023-04-27T06:46:40.236Z,1.6
2023-04-27T06:47:40.894Z,1.5
2023-04-27T06:48:41.476Z,1.8
2023-04-27T06:49:42.072Z,1.5
2023-04-27T06:50:42.692Z,1.7
2023-04-27T06:51:43.291Z,1.6
2023-04-27T06:52:43.890Z,1.9
2023-04-27T06:53:44.489Z,1.7
2023-04-27T06:54:45.089Z,1.8
2023-04-27T06:55:47.531Z,2.5
2023-04-27T06:56:47.281Z,1.4
2023-04-27T06:57:47.878Z,1.8
2023-04-27T06:58:48.476Z,2.4
2023-04-27T06:59:49.074Z,2.4
2023-04-27T07:00:49.674Z,2.3
2023-04-27T07:01:50.341Z,2.1
2023-04-27T07:02:51.002Z,2.0
2023-04-27T07:03:51.952Z,2.3
2023-04-27T07:04:52.499Z,2.3
2023-04-27T07:05:53.168Z,2.0
2023-04-27T07:06:53.772Z,2.3
2023-04-27T07:07:54.527Z,1.8
2023-04-27T07:08:55.263Z,2.1
2023-04-27T07:09:55.683Z,1.8
2023-04-27T07:10:56.287Z,1.8
2023-04-27T07:11:56.892Z,1.5
2023-04-27T07:12:57.516Z,1.4
2023-04-27T07:13:58.132Z,1.9
2023-04-27T07:14:58.732Z,1.4
2023-04-27T07:15:59.368Z,1.7
2023-04-27T07:16:59.945Z,1.8
2023-04-27T07:18:00.604Z,2.0
2023-04-27T07:19:01.235Z,1.8
2023-04-27T07:20:01.843Z,1.5
2023-04-27T07:21:02.460Z,1.7
2023-04-27T07:22:03.064Z,1.9
2023-04-27T07:23:03.680Z,1.4
2023-04-27T07:24:04.279Z,1.9
2023-04-27T07:25:04.883Z,1.6
2023-04-27T07:26:05.480Z,1.9
2023-04-27T07:27:06.080Z,1.8
2023-04-27T07:28:06.681Z,1.8
2023-04-27T07:29:18.886Z,1.9
2023-04-27T07:30:07.901Z,2.8
2023-04-27T07:31:08.496Z,2.5
2023-04-27T07:32:09.250Z,2.1
2023-04-27T07:33:09.917Z,1.6
2023-04-27T07:34:10.536Z,2.2
2023-04-27T07:35:11.142Z,2.6
2023-04-27T07:36:11.758Z,2.0
2023-04-27T07:37:12.441Z,2.0
2023-04-27T07:38:13.037Z,1.8
2023-04-27T07:39:13.769Z,1.8
2023-04-27T07:40:14.251Z,2.0
2023-04-27T07:41:14.847Z,2.0
2023-04-27T07:42:15.445Z,1.8
2023-04-27T07:43:16.073Z,1.8
2023-04-27T07:44:16.680Z,1.8
2023-04-27T07:45:17.263Z,2.0
2023-04-27T07:46:17.957Z,1.9
2023-04-27T07:47:18.514Z,1.7
2023-04-27T07:48:19.216Z,1.8
2023-04-27T07:49:19.796Z,1.8
2023-04-27T07:50:20.405Z,1.6
2023-04-27T07:51:21.039Z,1.4
2023-04-27T07:52:21.640Z,1.8
2023-04-27T07:53:22.239Z,1.7
2023-04-27T07:54:22.841Z,1.4
2023-04-27T07:55:23.485Z,1.6
2023-04-27T07:56:24.070Z,1.4
2023-04-27T07:57:24.636Z,1.6
2023-04-27T07:58:25.237Z,1.5
2023-04-27T07:59:25.844Z,1.8
2023-04-27T08:00:26.440Z,1.5
2023-04-27T08:01:27.055Z,2.2
2023-04-27T08:02:27.744Z,1.9
2023-04-27T08:03:28.711Z,2.3
2023-04-27T08:04:29.320Z,2.0
2023-04-27T08:05:30.720Z,2.0
2023-04-27T08:06:32.231Z,2.2
2023-04-27T08:07:32.769Z,2.2
2023-04-27T08:08:33.610Z,2.1
2023-04-27T08:09:34.189Z,2.0
2023-04-27T08:10:34.802Z,1.5
2023-04-27T08:11:35.417Z,2.0
2023-04-27T08:12:36.016Z,2.3
2023-04-27T08:13:36.618Z,1.9
2023-04-27T08:14:37.231Z,1.6
2023-04-27T08:15:37.836Z,2.2
2023-04-27T08:16:38.480Z,2.2
2023-04-27T08:17:39.138Z,1.8
2023-04-27T08:18:39.733Z,1.7
2023-04-27T08:19:40.317Z,2.9
2023-04-27T08:20:40.912Z,2.2
2023-04-27T08:21:41.513Z,2.7
2023-04-27T08:22:42.110Z,1.8
2023-04-27T08:23:42.725Z,2.2
2023-04-27T08:24:43.325Z,1.8
2023-04-27T08:25:43.953Z,2.0
2023-04-27T08:26:44.567Z,2.2
2023-04-27T08:27:45.174Z,2.1
2023-04-27T08:28:45.771Z,2.0
2023-04-27T08:29:46.365Z,2.2
2023-04-27T08:30:46.968Z,2.1
2023-04-27T08:31:47.723Z,1.9
2023-04-27T08:32:48.242Z,2.1
2023-04-27T08:33:48.805Z,2.1
2023-04-27T08:34:49.399Z,1.7
2023-04-27T08:35:50.024Z,1.9
2023-04-27T08:36:50.634Z,2.0
2023-04-27T08:37:51.247Z,1.8
2023-04-27T08:38:51.857Z,1.9
2023-04-27T08:39:52.458Z,1.8
2023-04-27T08:40:53.055Z,1.9
2023-04-27T08:41:53.667Z,1.9
2023-04-27T08:42:54.270Z,2.0
2023-04-27T08:43:54.871Z,1.9
2023-04-27T08:44:55.468Z,2.1
2023-04-27T08:45:56.097Z,2.2
2023-04-27T08:46:56.672Z,1.8
2023-04-27T08:47:57.340Z,1.7
2023-04-27T08:48:57.921Z,1.7
2023-04-27T08:49:58.543Z,1.9
2023-04-27T08:50:59.144Z,1.6
2023-04-27T08:51:59.779Z,1.6
2023-04-27T08:53:00.376Z,1.8
2023-04-27T08:54:00.987Z,2.0
2023-04-27T08:55:01.584Z,1.8
2023-04-27T08:56:02.179Z,1.4
2023-04-27T08:57:02.786Z,1.6
2023-04-27T08:58:03.403Z,1.7
2023-04-27T08:59:04.019Z,1.3
2023-04-27T09:00:04.622Z,2.1
2023-04-27T09:01:05.226Z,1.8
2023-04-27T09:02:05.895Z,2.3
2023-04-27T09:03:06.665Z,1.7
2023-04-27T09:04:07.581Z,1.9
2023-04-27T09:05:08.030Z,2.3
2023-04-27T09:06:08.688Z,1.7
2023-04-27T09:07:09.287Z,1.8
2023-04-27T09:08:09.891Z,1.7
2023-04-27T09:09:10.487Z,2.0
2023-04-27T09:10:11.116Z,1.5
2023-04-27T09:11:11.695Z,1.7
2023-04-27T09:12:12.295Z,1.8
2023-04-27T09:13:12.896Z,2.1
2023-04-27T09:14:13.497Z,1.7
2023-04-27T09:15:14.102Z,1.9
2023-04-27T09:16:14.853Z,1.5
2023-04-27T09:17:15.327Z,1.7
2023-04-27T09:18:15.943Z,1.8
2023-04-27T09:19:16.669Z,1.9
2023-04-27T09:20:17.271Z,1.7
2023-04-27T09:21:17.887Z,2.0
2023-04-27T09:22:18.487Z,1.8
2023-04-27T09:23:19.110Z,1.9
2023-04-27T09:24:19.706Z,1.6
2023-04-27T09:25:20.312Z,1.6
2023-04-27T09:26:20.909Z,1.8
2023-04-27T09:27:21.512Z,1.8
2023-04-27T09:28:22.114Z,1.8
2023-04-27T09:29:22.711Z,1.9
2023-04-27T09:30:23.328Z,1.9
2023-04-27T09:31:23.968Z,1.9
2023-04-27T09:32:24.561Z,2.1
2023-04-27T09:33:25.143Z,1.8
2023-04-27T09:34:25.830Z,2.2
2023-04-27T09:35:26.351Z,2.0
2023-04-27T09:36:26.974Z,2.0
2023-04-27T09:37:27.584Z,1.6
2023-04-27T09:38:28.196Z,1.6
2023-04-27T09:39:28.798Z,1.5
2023-04-27T09:40:29.402Z,2.1
2023-04-27T09:41:30.015Z,1.6
2023-04-27T09:42:30.630Z,2.0
2023-04-27T09:43:31.199Z,1.8
2023-04-27T09:44:31.804Z,1.8
2023-04-27T09:45:32.449Z,2.1
2023-04-27T09:46:33.024Z,2.1
2023-04-27T09:47:33.740Z,1.7
2023-04-27T09:48:34.317Z,1.7
2023-04-27T09:49:34.954Z,1.9
2023-04-27T09:50:37.386Z,1.8
2023-04-27T09:51:37.138Z,1.5
2023-04-27T09:52:37.737Z,1.7
2023-04-27T09:53:38.343Z,1.4
2023-04-27T09:54:38.942Z,1.9
2023-04-27T09:55:39.552Z,1.6
2023-04-27T09:56:40.164Z,1.8
2023-04-27T09:57:40.766Z,2.0
2023-04-27T09:58:41.368Z,1.9
2023-04-27T09:59:41.971Z,1.9
2023-04-27T10:00:42.590Z,1.7
2023-04-27T10:01:43.347Z,1.5
2023-04-27T10:02:52.563Z,1.6
2023-04-27T10:03:45.498Z,1.6
2023-04-27T10:04:46.133Z,1.7
2023-04-27T10:05:46.740Z,1.6
2023-04-27T10:06:47.358Z,2.1
2023-04-27T10:07:47.960Z,1.6
2023-04-27T10:08:48.582Z,1.6
2023-04-27T10:09:49.176Z,1.3
2023-04-27T10:10:49.773Z,1.3
2023-04-27T10:11:50.373Z,1.5
2023-04-27T10:12:50.975Z,1.7
2023-04-27T10:13:52.432Z,1.9
2023-04-27T10:14:52.255Z,1.5
2023-04-27T10:15:52.838Z,1.6
2023-04-27T10:16:53.552Z,1.3
2023-04-27T10:17:54.198Z,1.4
2023-04-27T10:18:54.795Z,1.4
2023-04-27T10:19:57.348Z,1.0
2023-04-27T10:20:57.007Z,1.0
2023-04-27T10:21:57.589Z,1.2
2023-04-27T10:22:58.188Z,1.1
2023-04-27T10:23:58.791Z,1.4
2023-04-27T10:24:59.399Z,1.3
2023-04-27T10:26:00.014Z,1.0
2023-04-27T10:27:00.593Z,1.3
2023-04-27T10:28:01.198Z,1.2
2023-04-27T10:29:01.820Z,1.2
2023-04-27T10:30:02.422Z,1.0
2023-04-27T10:31:03.071Z,1.0
2023-04-27T10:32:03.631Z,1.3
2023-04-27T10:33:04.313Z,1.4
2023-04-27T10:34:04.879Z,1.4
2023-04-27T10:35:05.490Z,1.4
2023-04-27T10:36:06.102Z,1.4
2023-04-27T10:37:06.706Z,1.5
2023-04-27T10:38:07.302Z,1.4
2023-04-27T10:39:07.904Z,1.6
2023-04-27T10:40:08.527Z,1.1
2023-04-27T10:41:09.134Z,1.4
2023-04-27T10:42:09.730Z,1.5
2023-04-27T10:43:10.334Z,1.4
2023-04-27T10:44:10.959Z,1.3
2023-04-27T10:45:11.563Z,1.6
2023-04-27T10:46:12.208Z,1.5
2023-04-27T10:47:12.810Z,1.3
2023-04-27T10:48:13.459Z,1.2
2023-04-27T10:49:14.282Z,1.4
2023-04-27T10:50:15.003Z,1.6
2023-04-27T10:51:15.655Z,1.6
2023-04-27T10:52:16.207Z,1.5
2023-04-27T10:53:16.803Z,1.5
2023-04-27T10:54:17.410Z,1.5
2023-04-27T10:55:18.047Z,1.8
2023-04-27T10:56:18.612Z,1.6
2023-04-27T10:57:19.211Z,1.4
2023-04-27T10:58:19.833Z,1.2
2023-04-27T10:59:20.449Z,1.8
2023-04-27T11:00:21.055Z,1.5
2023-04-27T11:01:21.726Z,1.3
2023-04-27T11:02:22.372Z,1.4
2023-04-27T11:03:23.178Z,1.6
2023-04-27T11:04:23.878Z,1.7
2023-04-27T11:05:24.472Z,1.8
2023-04-27T11:06:25.066Z,1.5
2023-04-27T11:07:25.696Z,1.6
2023-04-27T11:08:26.287Z,1.7
2023-04-27T11:09:26.878Z,1.5
2023-04-27T11:10:27.471Z,1.4
2023-04-27T11:11:28.108Z,1.6
2023-04-27T11:12:28.673Z,1.6
2023-04-27T11:13:29.275Z,1.3
2023-04-27T11:14:29.888Z,1.9
2023-04-27T11:15:30.480Z,1.5
2023-04-27T11:16:32.816Z,1.3
2023-04-27T11:17:32.724Z,1.3
2023-04-27T11:18:33.299Z,1.3
2023-04-27T11:19:33.907Z,1.5
2023-04-27T11:20:34.540Z,1.8
2023-04-27T11:21:35.175Z,1.5
2023-04-27T11:22:35.758Z,1.7
2023-04-27T11:23:36.358Z,1.6
2023-04-27T11:24:36.965Z,1.4
2023-04-27T11:25:37.584Z,1.6
2023-04-27T11:26:38.185Z,1.6
2023-04-27T11:27:38.796Z,1.6
2023-04-27T11:28:39.386Z,2.1
2023-04-27T11:29:39.989Z,1.8
2023-04-27T11:30:40.593Z,1.9
2023-04-27T11:31:41.221Z,1.5
2023-04-27T11:32:41.843Z,1.8
2023-04-27T11:33:42.449Z,1.4
2023-04-27T11:34:43.055Z,1.3
2023-04-27T11:35:43.652Z,1.7
2023-04-27T11:36:44.257Z,1.7
2023-04-27T11:37:44.876Z,1.6
2023-04-27T11:38:45.615Z,1.9
2023-04-27T11:39:46.375Z,1.6
2023-04-27T11:40:47.130Z,2.0
2023-04-27T11:41:47.737Z,2.0
2023-04-27T11:42:48.343Z,1.7
2023-04-27T11:43:48.940Z,1.6
2023-04-27T11:44:49.540Z,1.5
2023-04-27T11:45:50.143Z,2.0
2023-04-27T11:46:50.804Z,1.7
2023-04-27T11:47:51.383Z,1.7
2023-04-27T11:48:51.965Z,2.0
2023-04-27T11:49:52.578Z,1.6
2023-04-27T11:50:53.166Z,1.6
2023-04-27T11:51:53.770Z,1.9
2023-04-27T11:52:54.375Z,1.7
2023-04-27T11:53:54.978Z,2.4
2023-04-27T11:54:55.600Z,1.9
2023-04-27T11:55:56.203Z,2.1
2023-04-27T11:56:56.810Z,1.8
2023-04-27T11:57:57.403Z,1.6
2023-04-27T11:58:58.075Z,2.3
2023-04-27T11:59:58.807Z,1.8
2023-04-27T12:00:59.384Z,1.9
2023-04-27T12:02:00.024Z,2.0
2023-04-27T12:03:00.891Z,1.8
2023-04-27T12:04:11.717Z,1.7
2023-04-27T12:05:02.319Z,1.7
2023-04-27T12:07:04.334Z,2.0
2023-04-27T12:08:04.928Z,1.9
2023-04-27T12:09:05.529Z,1.8
2023-04-27T12:10:06.152Z,2.1
2023-04-27T12:11:06.751Z,2.0
2023-04-27T12:12:07.353Z,2.1
2023-04-27T12:13:07.974Z,1.9
2023-04-27T12:14:08.574Z,2.0
2023-04-27T12:15:09.195Z,1.6
2023-04-27T12:16:09.775Z,2.1
2023-04-27T12:17:10.518Z,2.2
2023-04-27T12:18:11.264Z,2.2
2023-04-27T12:19:11.832Z,2.1
2023-04-27T12:20:12.455Z,2.1
2023-04-27T12:21:13.056Z,2.0
2023-04-27T12:22:13.655Z,2.1
2023-04-27T12:23:14.274Z,2.2
2023-04-27T12:24:15.077Z,2.3
2023-04-27T12:25:15.492Z,1.9
2023-04-27T12:26:16.091Z,1.9
2023-04-27T12:27:16.702Z,2.2
2023-04-27T12:28:17.301Z,2.3
2023-04-27T12:29:17.924Z,2.1
2023-04-27T12:30:18.540Z,2.1
2023-04-27T12:31:19.181Z,2.3
2023-04-27T12:32:19.745Z,2.3
2023-04-27T12:33:20.421Z,2.6
2023-04-27T12:34:20.972Z,2.5
2023-04-27T12:35:21.571Z,2.6
2023-04-27T12:36:22.175Z,2.7
2023-04-27T12:37:24.293Z,2.2
2023-04-27T12:38:24.368Z,2.0
2023-04-27T12:39:24.989Z,2.1
2023-04-27T12:40:25.592Z,1.8
2023-04-27T12:41:26.189Z,2.2
2023-04-27T12:42:26.805Z,2.2
2023-04-27T12:43:27.406Z,2.1
2023-04-27T12:44:28.029Z,2.1
2023-04-27T12:45:28.633Z,2.4
2023-04-27T12:46:29.365Z,2.1
2023-04-27T12:47:49.768Z,2.4
2023-04-27T12:48:31.546Z,2.3
2023-04-27T12:49:32.168Z,2.3
2023-04-27T12:50:32.847Z,2.4
2023-04-27T12:51:33.412Z,2.6
2023-04-27T12:52:34.016Z,2.2
2023-04-27T12:53:34.617Z,2.2
2023-04-27T12:54:35.233Z,2.5
2023-04-27T12:55:35.847Z,2.4
2023-04-27T12:56:36.465Z,2.3
2023-04-27T12:57:37.074Z,2.0
2023-04-27T12:58:37.668Z,2.5
2023-04-27T12:59:38.265Z,2.1
2023-04-27T13:00:38.870Z,2.1
2023-04-27T13:01:39.501Z,2.2
2023-04-27T13:02:40.186Z,2.2
2023-04-27T13:03:40.924Z,1.8
2023-04-27T13:04:41.612Z,2.7
2023-04-27T13:05:42.218Z,2.3
2023-04-27T13:06:42.821Z,2.0
2023-04-27T13:07:43.425Z,1.9
2023-04-27T13:08:44.026Z,2.3
2023-04-27T13:09:44.629Z,2.5
2023-04-27T13:10:45.231Z,2.0
2023-04-27T13:11:45.836Z,2.1
2023-04-27T13:12:46.437Z,2.4
2023-04-27T13:13:47.035Z,1.8
2023-04-27T13:14:47.637Z,1.8
2023-04-27T13:15:48.262Z,1.9
2023-04-27T13:16:48.848Z,2.2
2023-04-27T13:17:49.531Z,2.5
2023-04-27T13:18:50.169Z,2.2
2023-04-27T13:19:50.776Z,2.1
2023-04-27T13:20:51.378Z,1.9
2023-04-27T13:21:51.982Z,2.1
2023-04-27T13:22:52.586Z,2.2
2023-04-27T13:23:53.183Z,2.4
2023-04-27T13:24:53.787Z,2.4
2023-04-27T13:25:54.396Z,2.0
2023-04-27T13:26:54.991Z,2.0
2023-04-27T13:27:55.594Z,1.8
2023-04-27T13:28:56.196Z,1.9
2023-04-27T13:29:56.802Z,2.4
2023-04-27T13:30:58.971Z,2.0
2023-04-27T13:31:59.099Z,2.1
2023-04-27T13:33:10.473Z,2.2
2023-04-27T13:34:00.311Z,2.1
2023-04-27T13:35:00.913Z,2.0
2023-04-27T13:36:01.513Z,2.2
2023-04-27T13:37:02.117Z,2.5
2023-04-27T13:38:02.755Z,2.5
2023-04-27T13:39:03.364Z,2.6
2023-04-27T13:40:03.962Z,2.5
2023-04-27T13:41:04.588Z,2.2
2023-04-27T13:42:05.193Z,2.2
2023-04-27T13:43:05.788Z,1.8
2023-04-27T13:44:06.395Z,2.0
2023-04-27T13:45:06.987Z,2.2
2023-04-27T13:46:07.681Z,2.3
2023-04-27T13:47:08.351Z,2.4
2023-04-27T13:48:08.960Z,2.4
2023-04-27T13:49:09.563Z,1.9
2023-04-27T13:50:10.282Z,2.4
2023-04-27T13:51:11.061Z,2.3
2023-04-27T13:52:11.662Z,2.5
2023-04-27T13:53:12.321Z,1.9
2023-04-27T13:54:13.171Z,2.2
2023-04-27T13:55:13.876Z,2.2
2023-04-27T13:56:14.458Z,1.9